CPA1550 VABB-VHHX
Flight info
| Callsign | CPA1550 |
|---|---|
| Flight time | 5h 24m |
| Altitude | 35000 |
| Route | ANOLI2A AAU G450 JJS/N0495F370 A791 CEA B465 CTG A599 LINSO/K0907S1130 A599 GULOT W146 XSJ W148 LXI A599 POU |
| Aircraft | B77W/H-SDE1E2E3FGHIJ2J3J4J5M1RWXY/LB1D1 |
Departure
| Time | 2026-04-29 22:47 |
|---|---|
| Airport | Chhatrapati Shivaji Maharaj International Airport (VABB) |
Arrival
| Time | 2026-04-30 04:11 |
|---|---|
| Airport | Hong Kong International Airport Kai Tak (VHHX) |
| Time | Latitude | Longitude | Altitude | Speed | Heading |
|---|---|---|---|---|---|
| 2026-04-29 22:25 | 19.09534 | 72.87419 | 39 ft | 0 kts | 347° |
| 2026-04-29 22:39 | 19.09527 | 72.87421 | 38 ft | 2 kts | 347° |
| 2026-04-29 22:39 | 19.09511 | 72.87425 | 38 ft | 2 kts | 347° |
| 2026-04-29 22:39 | 19.09495 | 72.87429 | 36 ft | 2 kts | 346° |
| 2026-04-29 22:40 | 19.09479 | 72.87433 | 37 ft | 2 kts | 349° |
| 2026-04-29 22:40 | 19.09463 | 72.87434 | 37 ft | 2 kts | 4° |
| 2026-04-29 22:40 | 19.09446 | 72.87432 | 35 ft | 2 kts | 9° |
| 2026-04-29 22:40 | 19.09430 | 72.87429 | 36 ft | 2 kts | 15° |
| 2026-04-29 22:41 | 19.09414 | 72.87423 | 36 ft | 2 kts | 27° |
| 2026-04-29 22:41 | 19.09401 | 72.87413 | 35 ft | 2 kts | 50° |
| 2026-04-29 22:41 | 19.09393 | 72.87402 | 36 ft | 1 kts | 49° |
| 2026-04-29 22:41 | 19.09392 | 72.87402 | 36 ft | 0 kts | 49° |
| 2026-04-29 22:42 | 19.09395 | 72.87405 | 36 ft | 3 kts | 49° |
| 2026-04-29 22:43 | 19.09417 | 72.87440 | 36 ft | 8 kts | 71° |
| 2026-04-29 22:43 | 19.09398 | 72.87503 | 40 ft | 11 kts | 124° |
| 2026-04-29 22:43 | 19.09352 | 72.87563 | 40 ft | 11 kts | 130° |
| 2026-04-29 22:43 | 19.09305 | 72.87623 | 40 ft | 11 kts | 130° |
| 2026-04-29 22:44 | 19.09245 | 72.87668 | 41 ft | 11 kts | 163° |
| 2026-04-29 22:44 | 19.09165 | 72.87688 | 41 ft | 12 kts | 144° |
| 2026-04-29 22:44 | 19.09134 | 72.87777 | 42 ft | 14 kts | 114° |
| 2026-04-29 22:44 | 19.09065 | 72.87849 | 42 ft | 15 kts | 109° |
| 2026-04-29 22:45 | 19.09060 | 72.87965 | 43 ft | 17 kts | 89° |
| 2026-04-29 22:45 | 19.08999 | 72.88047 | 43 ft | 17 kts | 176° |
| 2026-04-29 22:45 | 19.08912 | 72.87977 | 42 ft | 17 kts | 235° |
| 2026-04-29 22:45 | 19.08887 | 72.87881 | 42 ft | 0 kts | 269° |
| 2026-04-29 22:46 | 19.08887 | 72.87877 | 42 ft | 5 kts | 269° |
| 2026-04-29 22:46 | 19.08883 | 72.87645 | 40 ft | 68 kts | 269° |
| 2026-04-29 22:46 | 19.08872 | 72.86876 | 40 ft | 139 kts | 269° |
| 2026-04-29 22:46 | 19.08842 | 72.85643 | 86 ft | 189 kts | 267° |
| 2026-04-29 22:47 | 19.08833 | 72.84250 | 670 ft | 190 kts | 270° |
| 2026-04-29 22:47 | 19.08842 | 72.82808 | 1035 ft | 211 kts | 269° |
| 2026-04-29 22:47 | 19.08819 | 72.81227 | 1612 ft | 220 kts | 268° |
| 2026-04-29 22:47 | 19.08788 | 72.79558 | 2052 ft | 239 kts | 268° |
| 2026-04-29 22:48 | 19.08753 | 72.77724 | 2549 ft | 254 kts | 268° |
| 2026-04-29 22:48 | 19.08717 | 72.75844 | 3357 ft | 257 kts | 269° |
| 2026-04-29 22:48 | 19.08791 | 72.73966 | 4059 ft | 258 kts | 284° |
| 2026-04-29 22:48 | 19.09663 | 72.72298 | 4726 ft | 265 kts | 314° |
| 2026-04-29 22:49 | 19.11215 | 72.71263 | 5559 ft | 268 kts | 339° |
| 2026-04-29 22:49 | 19.13072 | 72.71051 | 6379 ft | 274 kts | 4° |
| 2026-04-29 22:49 | 19.14897 | 72.71734 | 7008 ft | 289 kts | 32° |
| 2026-04-29 22:49 | 19.16484 | 72.73080 | 7474 ft | 296 kts | 32° |
| 2026-04-29 22:50 | 19.18285 | 72.74146 | 8071 ft | 297 kts | 17° |
| 2026-04-29 22:50 | 19.20275 | 72.74653 | 8780 ft | 293 kts | 0° |
| 2026-04-29 22:50 | 19.22310 | 72.74598 | 9446 ft | 294 kts | 350° |
| 2026-04-29 22:50 | 19.24362 | 72.74374 | 9808 ft | 299 kts | 350° |
| 2026-04-29 22:51 | 19.26457 | 72.74186 | 9793 ft | 303 kts | 351° |
| 2026-04-29 22:51 | 19.28552 | 72.74050 | 9789 ft | 300 kts | 355° |
| 2026-04-29 22:51 | 19.32342 | 72.75929 | 10033 ft | 328 kts | 38° |
| 2026-04-29 22:52 | 19.34109 | 72.77594 | 10200 ft | 351 kts | 39° |
| 2026-04-29 22:52 | 19.35995 | 72.79371 | 10373 ft | 375 kts | 39° |
| 2026-04-29 22:52 | 19.37994 | 72.81254 | 10654 ft | 392 kts | 39° |
| 2026-04-29 22:52 | 19.40053 | 72.83189 | 11292 ft | 399 kts | 39° |
| 2026-04-29 22:53 | 19.42143 | 72.85145 | 12124 ft | 401 kts | 39° |
| 2026-04-29 22:53 | 19.44231 | 72.87097 | 13121 ft | 398 kts | 40° |
| 2026-04-29 22:53 | 19.46048 | 72.89314 | 13758 ft | 406 kts | 58° |
| 2026-04-29 22:53 | 19.47022 | 72.92146 | 14381 ft | 412 kts | 77° |
| 2026-04-29 22:54 | 19.47559 | 72.95150 | 14970 ft | 418 kts | 77° |
| 2026-04-29 22:54 | 19.48143 | 72.98186 | 15634 ft | 423 kts | 76° |
| 2026-04-29 22:54 | 19.48759 | 73.01241 | 16413 ft | 424 kts | 76° |
| 2026-04-29 22:54 | 19.49386 | 73.04302 | 17176 ft | 426 kts | 76° |
| 2026-04-29 22:55 | 19.50019 | 73.07382 | 17917 ft | 430 kts | 76° |
| 2026-04-29 22:55 | 19.50671 | 73.10487 | 18544 ft | 434 kts | 75° |
| 2026-04-29 22:55 | 19.51337 | 73.13622 | 19134 ft | 438 kts | 75° |
| 2026-04-29 22:55 | 19.52011 | 73.16787 | 19734 ft | 442 kts | 75° |
| 2026-04-29 22:56 | 19.52689 | 73.19980 | 20346 ft | 446 kts | 75° |
| 2026-04-29 22:56 | 19.53362 | 73.23161 | 20969 ft | 450 kts | 75° |
| 2026-04-29 22:56 | 19.54048 | 73.26412 | 21572 ft | 454 kts | 75° |
| 2026-04-29 22:56 | 19.54748 | 73.29737 | 22188 ft | 459 kts | 75° |
| 2026-04-29 22:57 | 19.55436 | 73.33007 | 22752 ft | 464 kts | 75° |
| 2026-04-29 22:57 | 19.56138 | 73.36364 | 23301 ft | 468 kts | 75° |
| 2026-04-29 22:57 | 19.56665 | 73.39793 | 23801 ft | 474 kts | 80° |
| 2026-04-29 22:57 | 19.56995 | 73.43290 | 24267 ft | 479 kts | 82° |
| 2026-04-29 22:58 | 19.57264 | 73.46822 | 24734 ft | 483 kts | 82° |
| 2026-04-29 22:58 | 19.57546 | 73.50382 | 25171 ft | 487 kts | 82° |
| 2026-04-29 22:58 | 19.57862 | 73.53965 | 25601 ft | 490 kts | 81° |
| 2026-04-29 22:58 | 19.58208 | 73.57578 | 26022 ft | 494 kts | 81° |
| 2026-04-29 22:59 | 19.58568 | 73.61194 | 26573 ft | 493 kts | 81° |
| 2026-04-29 22:59 | 19.58926 | 73.64811 | 27155 ft | 492 kts | 81° |
| 2026-04-29 22:59 | 19.59399 | 73.68384 | 27783 ft | 487 kts | 73° |
| 2026-04-29 22:59 | 19.60618 | 73.71674 | 28379 ft | 474 kts | 57° |
| 2026-04-29 23:00 | 19.62250 | 73.74689 | 29056 ft | 471 kts | 56° |
| 2026-04-29 23:00 | 19.63879 | 73.77701 | 29703 ft | 470 kts | 57° |
| 2026-04-29 23:00 | 19.65473 | 73.80723 | 30289 ft | 469 kts | 57° |
| 2026-04-29 23:00 | 19.67035 | 73.83761 | 30841 ft | 468 kts | 57° |
| 2026-04-29 23:01 | 19.68571 | 73.86797 | 31395 ft | 466 kts | 57° |
| 2026-04-29 23:01 | 19.70090 | 73.89822 | 31980 ft | 463 kts | 57° |
| 2026-04-29 23:01 | 19.71598 | 73.92828 | 32560 ft | 460 kts | 57° |
| 2026-04-29 23:01 | 19.73099 | 73.95816 | 33154 ft | 456 kts | 57° |
| 2026-04-29 23:02 | 19.74585 | 73.98773 | 33771 ft | 453 kts | 56° |
| 2026-04-29 23:02 | 19.76058 | 74.01711 | 34318 ft | 449 kts | 57° |
| 2026-04-29 23:02 | 19.77358 | 74.04726 | 34778 ft | 451 kts | 62° |
| 2026-04-29 23:02 | 19.78504 | 74.07856 | 34843 ft | 460 kts | 64° |
| 2026-04-29 23:03 | 19.80699 | 74.14350 | 34862 ft | 474 kts | 65° |
| 2026-04-29 23:03 | 19.82980 | 74.20966 | 34864 ft | 487 kts | 64° |
| 2026-04-29 23:04 | 19.85400 | 74.27769 | 34853 ft | 497 kts | 64° |
| 2026-04-29 23:04 | 19.87884 | 74.34694 | 34850 ft | 506 kts | 64° |
| 2026-04-29 23:05 | 19.90395 | 74.41716 | 34849 ft | 510 kts | 64° |
| 2026-04-29 23:05 | 19.92909 | 74.48767 | 34830 ft | 511 kts | 64° |
| 2026-04-29 23:06 | 19.95421 | 74.55822 | 34841 ft | 510 kts | 64° |
| 2026-04-29 23:06 | 19.97927 | 74.62865 | 34841 ft | 508 kts | 64° |
| 2026-04-29 23:07 | 20.00008 | 74.70035 | 34841 ft | 515 kts | 80° |
| 2026-04-29 23:07 | 19.99884 | 74.73861 | 34820 ft | 524 kts | 98° |
| 2026-04-29 23:07 | 19.99050 | 74.77633 | 34863 ft | 524 kts | 100° |
| 2026-04-29 23:08 | 19.97361 | 74.85200 | 34840 ft | 527 kts | 99° |
| 2026-04-29 23:08 | 19.95781 | 74.92824 | 34843 ft | 530 kts | 98° |
| 2026-04-29 23:09 | 19.94242 | 75.00495 | 34849 ft | 531 kts | 98° |
| 2026-04-29 23:09 | 19.92696 | 75.08185 | 34854 ft | 533 kts | 98° |
| 2026-04-29 23:10 | 19.91136 | 75.15886 | 34836 ft | 534 kts | 98° |
| 2026-04-29 23:10 | 19.89568 | 75.23595 | 34836 ft | 534 kts | 98° |
| 2026-04-29 23:11 | 19.88000 | 75.31294 | 34835 ft | 533 kts | 98° |
| 2026-04-29 23:11 | 19.86614 | 75.38997 | 34815 ft | 524 kts | 88° |
| 2026-04-29 23:12 | 19.86840 | 75.42800 | 34843 ft | 512 kts | 72° |
| 2026-04-29 23:12 | 19.87961 | 75.46331 | 34833 ft | 500 kts | 60° |
| 2026-04-29 23:12 | 19.90658 | 75.53163 | 34833 ft | 510 kts | 63° |
| 2026-04-29 23:13 | 19.93242 | 75.60214 | 34837 ft | 513 kts | 64° |
| 2026-04-29 23:13 | 19.95781 | 75.67306 | 34825 ft | 514 kts | 64° |
| 2026-04-29 23:14 | 19.98323 | 75.74398 | 34826 ft | 513 kts | 64° |
| 2026-04-29 23:14 | 20.00866 | 75.81471 | 34823 ft | 512 kts | 63° |
| 2026-04-29 23:15 | 20.03407 | 75.88533 | 34823 ft | 511 kts | 63° |
| 2026-04-29 23:15 | 20.05939 | 75.95578 | 34824 ft | 510 kts | 63° |
| 2026-04-29 23:16 | 20.08467 | 76.02627 | 34825 ft | 509 kts | 64° |
| 2026-04-29 23:16 | 20.10987 | 76.09666 | 34822 ft | 509 kts | 64° |
| 2026-04-29 23:17 | 20.13503 | 76.16703 | 34828 ft | 509 kts | 64° |
| 2026-04-29 23:17 | 20.16018 | 76.23744 | 34817 ft | 509 kts | 64° |
| 2026-04-29 23:18 | 20.18533 | 76.30799 | 34821 ft | 510 kts | 64° |
| 2026-04-29 23:18 | 20.21047 | 76.37860 | 34811 ft | 510 kts | 64° |
| 2026-04-29 23:19 | 20.23561 | 76.44930 | 34818 ft | 511 kts | 64° |
| 2026-04-29 23:19 | 20.26073 | 76.52008 | 34811 ft | 511 kts | 64° |
| 2026-04-29 23:20 | 20.28585 | 76.59095 | 34802 ft | 512 kts | 64° |
| 2026-04-29 23:20 | 20.31096 | 76.66191 | 34808 ft | 512 kts | 64° |
| 2026-04-29 23:21 | 20.33592 | 76.73252 | 34806 ft | 513 kts | 64° |
| 2026-04-29 23:21 | 20.36101 | 76.80362 | 34797 ft | 513 kts | 64° |
| 2026-04-29 23:22 | 20.38162 | 76.86348 | 34800 ft | 514 kts | 65° |
| 2026-04-29 23:22 | 20.40350 | 76.93618 | 34803 ft | 516 kts | 67° |
| 2026-04-29 23:23 | 20.42482 | 77.00915 | 34790 ft | 516 kts | 67° |
| 2026-04-29 23:23 | 20.44658 | 77.08201 | 34793 ft | 515 kts | 66° |
| 2026-04-29 23:24 | 20.46851 | 77.15469 | 34793 ft | 515 kts | 66° |
| 2026-04-29 23:24 | 20.49045 | 77.22744 | 34795 ft | 515 kts | 66° |
| 2026-04-29 23:25 | 20.51233 | 77.30026 | 34796 ft | 516 kts | 67° |
| 2026-04-29 23:25 | 20.53417 | 77.37311 | 34791 ft | 516 kts | 67° |
| 2026-04-29 23:26 | 20.55625 | 77.44587 | 34789 ft | 515 kts | 65° |
| 2026-04-29 23:26 | 20.57973 | 77.51743 | 34789 ft | 514 kts | 65° |
| 2026-04-29 23:27 | 20.60358 | 77.58936 | 34790 ft | 514 kts | 65° |
| 2026-04-29 23:27 | 20.62715 | 77.66143 | 34790 ft | 515 kts | 65° |
| 2026-04-29 23:28 | 20.65059 | 77.73362 | 34787 ft | 515 kts | 65° |
| 2026-04-29 23:28 | 20.67403 | 77.80589 | 34784 ft | 515 kts | 65° |
| 2026-04-29 23:29 | 20.69753 | 77.87817 | 34779 ft | 515 kts | 65° |
| 2026-04-29 23:29 | 20.72136 | 77.95030 | 34792 ft | 515 kts | 65° |
| 2026-04-29 23:30 | 20.74525 | 78.02242 | 34786 ft | 515 kts | 65° |
| 2026-04-29 23:30 | 20.76908 | 78.09465 | 34784 ft | 515 kts | 65° |
| 2026-04-29 23:31 | 20.79282 | 78.16685 | 34780 ft | 515 kts | 65° |
| 2026-04-29 23:31 | 20.81642 | 78.23879 | 34778 ft | 515 kts | 65° |
| 2026-04-29 23:32 | 20.84008 | 78.31100 | 34781 ft | 515 kts | 65° |
| 2026-04-29 23:32 | 20.86373 | 78.38327 | 34782 ft | 515 kts | 65° |
| 2026-04-29 23:33 | 20.88735 | 78.45557 | 34785 ft | 515 kts | 65° |
| 2026-04-29 23:33 | 20.91094 | 78.52790 | 34783 ft | 515 kts | 65° |
| 2026-04-29 23:34 | 20.93449 | 78.60023 | 34783 ft | 515 kts | 65° |
| 2026-04-29 23:34 | 20.95801 | 78.67257 | 34785 ft | 515 kts | 65° |
| 2026-04-29 23:35 | 20.98151 | 78.74498 | 34796 ft | 515 kts | 65° |
| 2026-04-29 23:35 | 21.00500 | 78.81747 | 34781 ft | 516 kts | 65° |
| 2026-04-29 23:36 | 21.02844 | 78.88996 | 34784 ft | 515 kts | 65° |
| 2026-04-29 23:36 | 21.05186 | 78.96249 | 34786 ft | 515 kts | 65° |
| 2026-04-29 23:37 | 21.07523 | 79.03493 | 34789 ft | 515 kts | 65° |
| 2026-04-29 23:37 | 21.09763 | 79.10785 | 34783 ft | 517 kts | 68° |
| 2026-04-29 23:38 | 21.11782 | 79.18181 | 34777 ft | 517 kts | 69° |
| 2026-04-29 23:38 | 21.13779 | 79.25585 | 34787 ft | 517 kts | 69° |
| 2026-04-29 23:39 | 21.15810 | 79.32978 | 34780 ft | 517 kts | 68° |
| 2026-04-29 23:39 | 21.17856 | 79.40363 | 34768 ft | 517 kts | 68° |
| 2026-04-29 23:40 | 21.19891 | 79.47708 | 34783 ft | 518 kts | 69° |
| 2026-04-29 23:40 | 21.21936 | 79.55113 | 34773 ft | 519 kts | 69° |
| 2026-04-29 23:41 | 21.23979 | 79.62534 | 34775 ft | 519 kts | 69° |
| 2026-04-29 23:41 | 21.26020 | 79.69961 | 34775 ft | 520 kts | 69° |
| 2026-04-29 23:42 | 21.28060 | 79.77399 | 34772 ft | 520 kts | 69° |
| 2026-04-29 23:42 | 21.30101 | 79.84850 | 34769 ft | 521 kts | 69° |
| 2026-04-29 23:43 | 21.32137 | 79.92300 | 34776 ft | 521 kts | 69° |
| 2026-04-29 23:43 | 21.34175 | 79.99773 | 34775 ft | 522 kts | 69° |
| 2026-04-29 23:44 | 21.36210 | 80.07245 | 34774 ft | 522 kts | 69° |
| 2026-04-29 23:44 | 21.38242 | 80.14722 | 34772 ft | 522 kts | 69° |
| 2026-04-29 23:45 | 21.40272 | 80.22209 | 34776 ft | 522 kts | 70° |
| 2026-04-29 23:45 | 21.42299 | 80.29694 | 34772 ft | 523 kts | 70° |
| 2026-04-29 23:46 | 21.44323 | 80.37187 | 34777 ft | 523 kts | 70° |
| 2026-04-29 23:46 | 21.46343 | 80.44680 | 34772 ft | 523 kts | 70° |
| 2026-04-29 23:47 | 21.48359 | 80.52172 | 34777 ft | 522 kts | 70° |
| 2026-04-29 23:47 | 21.50374 | 80.59669 | 34784 ft | 522 kts | 70° |
| 2026-04-29 23:48 | 21.52386 | 80.67162 | 34778 ft | 522 kts | 70° |
| 2026-04-29 23:48 | 21.54397 | 80.74654 | 34776 ft | 522 kts | 70° |
| 2026-04-29 23:49 | 21.56402 | 80.82146 | 34782 ft | 522 kts | 70° |
| 2026-04-29 23:49 | 21.58406 | 80.89648 | 34775 ft | 522 kts | 70° |
| 2026-04-29 23:50 | 21.60390 | 80.97089 | 34766 ft | 521 kts | 70° |
| 2026-04-29 23:51 | 21.63372 | 81.08305 | 34752 ft | 520 kts | 70° |
| 2026-04-29 23:51 | 21.65351 | 81.15767 | 34752 ft | 519 kts | 70° |
| 2026-04-29 23:52 | 21.67325 | 81.23221 | 34738 ft | 518 kts | 70° |
| 2026-04-29 23:52 | 21.69295 | 81.30671 | 34749 ft | 518 kts | 71° |
| 2026-04-29 23:53 | 21.71311 | 81.38104 | 34735 ft | 518 kts | 71° |
| 2026-04-29 23:53 | 21.73361 | 81.45534 | 34732 ft | 518 kts | 71° |
| 2026-04-29 23:54 | 21.75398 | 81.52970 | 34732 ft | 519 kts | 71° |
| 2026-04-29 23:54 | 21.77428 | 81.60424 | 34724 ft | 519 kts | 71° |
| 2026-04-29 23:55 | 21.79417 | 81.67892 | 34733 ft | 520 kts | 73° |
| 2026-04-29 23:55 | 21.81254 | 81.75432 | 34728 ft | 522 kts | 74° |
| 2026-04-29 23:56 | 21.83084 | 81.83003 | 34721 ft | 523 kts | 73° |
| 2026-04-29 23:56 | 21.84942 | 81.90584 | 34724 ft | 524 kts | 73° |
| 2026-04-29 23:57 | 21.86803 | 81.98171 | 34721 ft | 524 kts | 73° |
| 2026-04-29 23:57 | 21.88645 | 82.05764 | 34724 ft | 525 kts | 74° |
| 2026-04-29 23:58 | 21.90462 | 82.13376 | 34725 ft | 525 kts | 74° |
| 2026-04-29 23:58 | 21.92272 | 82.20980 | 34722 ft | 524 kts | 74° |
| 2026-04-29 23:59 | 21.94083 | 82.28587 | 34723 ft | 524 kts | 74° |
| 2026-04-29 23:59 | 21.95889 | 82.36182 | 34717 ft | 524 kts | 74° |
| 2026-04-30 00:00 | 21.97694 | 82.43788 | 34715 ft | 524 kts | 74° |
| 2026-04-30 00:00 | 21.99484 | 82.51348 | 34731 ft | 525 kts | 74° |
| 2026-04-30 00:01 | 22.01284 | 82.58970 | 34731 ft | 525 kts | 74° |
| 2026-04-30 00:01 | 22.03084 | 82.66605 | 34731 ft | 526 kts | 74° |
| 2026-04-30 00:02 | 22.04883 | 82.74255 | 34723 ft | 526 kts | 74° |
| 2026-04-30 00:02 | 22.06677 | 82.81902 | 34731 ft | 527 kts | 74° |
| 2026-04-30 00:03 | 22.08471 | 82.89563 | 34731 ft | 527 kts | 74° |
| 2026-04-30 00:03 | 22.10260 | 82.97225 | 34736 ft | 527 kts | 74° |
| 2026-04-30 00:04 | 22.12045 | 83.04884 | 34740 ft | 527 kts | 74° |
| 2026-04-30 00:04 | 22.13828 | 83.12550 | 34737 ft | 527 kts | 74° |
| 2026-04-30 00:05 | 22.15606 | 83.20215 | 34764 ft | 526 kts | 75° |
| 2026-04-30 00:05 | 22.17376 | 83.27865 | 34755 ft | 525 kts | 75° |
| 2026-04-30 00:06 | 22.19143 | 83.35515 | 34778 ft | 524 kts | 75° |
| 2026-04-30 00:06 | 22.20899 | 83.43144 | 34784 ft | 524 kts | 75° |
| 2026-04-30 00:07 | 22.22649 | 83.50770 | 34799 ft | 523 kts | 75° |
| 2026-04-30 00:07 | 22.24384 | 83.58344 | 34804 ft | 523 kts | 75° |
| 2026-04-30 00:08 | 22.26138 | 83.66025 | 34812 ft | 523 kts | 75° |
| 2026-04-30 00:08 | 22.27865 | 83.73600 | 34814 ft | 523 kts | 75° |
| 2026-04-30 00:09 | 22.29600 | 83.81228 | 34822 ft | 523 kts | 75° |
| 2026-04-30 00:09 | 22.31052 | 83.87630 | 34821 ft | 524 kts | 75° |
| 2026-04-30 00:10 | 22.32775 | 83.95218 | 34829 ft | 525 kts | 75° |
| 2026-04-30 00:10 | 22.34546 | 84.02883 | 34836 ft | 526 kts | 75° |
| 2026-04-30 00:11 | 22.36326 | 84.10562 | 34862 ft | 527 kts | 75° |
| 2026-04-30 00:11 | 22.38099 | 84.18253 | 34859 ft | 528 kts | 75° |
| 2026-04-30 00:12 | 22.39865 | 84.25948 | 34857 ft | 527 kts | 75° |
| 2026-04-30 00:12 | 22.41626 | 84.33634 | 34861 ft | 527 kts | 76° |
| 2026-04-30 00:13 | 22.43381 | 84.41317 | 34867 ft | 526 kts | 76° |
| 2026-04-30 00:13 | 22.45131 | 84.48997 | 34864 ft | 526 kts | 76° |
| 2026-04-30 00:14 | 22.46876 | 84.56670 | 34879 ft | 526 kts | 76° |
| 2026-04-30 00:14 | 22.48618 | 84.64347 | 34881 ft | 525 kts | 76° |
| 2026-04-30 00:15 | 22.50356 | 84.72021 | 34889 ft | 526 kts | 76° |
| 2026-04-30 00:15 | 22.52091 | 84.79708 | 34903 ft | 526 kts | 76° |
| 2026-04-30 00:16 | 22.53810 | 84.87401 | 34905 ft | 527 kts | 77° |
| 2026-04-30 00:16 | 22.55472 | 84.95118 | 34903 ft | 527 kts | 77° |
| 2026-04-30 00:17 | 22.57122 | 85.02842 | 34910 ft | 527 kts | 77° |
| 2026-04-30 00:17 | 22.58764 | 85.10513 | 34912 ft | 526 kts | 77° |
| 2026-04-30 00:18 | 22.60412 | 85.18207 | 34916 ft | 524 kts | 77° |
| 2026-04-30 00:18 | 22.62055 | 85.25888 | 34917 ft | 523 kts | 77° |
| 2026-04-30 00:19 | 22.63689 | 85.33552 | 34927 ft | 522 kts | 77° |
| 2026-04-30 00:19 | 22.65317 | 85.41205 | 34938 ft | 521 kts | 77° |
| 2026-04-30 00:20 | 22.66939 | 85.48851 | 34929 ft | 521 kts | 78° |
| 2026-04-30 00:20 | 22.68554 | 85.56482 | 34933 ft | 520 kts | 78° |
| 2026-04-30 00:21 | 22.70164 | 85.64113 | 34924 ft | 520 kts | 78° |
| 2026-04-30 00:21 | 22.71771 | 85.71743 | 34923 ft | 520 kts | 78° |
| 2026-04-30 00:22 | 22.73375 | 85.79376 | 34924 ft | 520 kts | 79° |
| 2026-04-30 00:22 | 22.74974 | 85.87013 | 34887 ft | 520 kts | 79° |
| 2026-04-30 00:23 | 22.76571 | 85.94656 | 34847 ft | 520 kts | 79° |
| 2026-04-30 00:23 | 22.78166 | 86.02303 | 34824 ft | 520 kts | 79° |
| 2026-04-30 00:24 | 22.79757 | 86.09957 | 34807 ft | 521 kts | 79° |
| 2026-04-30 00:24 | 22.80983 | 86.17663 | 34799 ft | 518 kts | 88° |
| 2026-04-30 00:25 | 22.80987 | 86.25413 | 34906 ft | 512 kts | 97° |
| 2026-04-30 00:25 | 22.80518 | 86.33045 | 34898 ft | 511 kts | 97° |
| 2026-04-30 00:26 | 22.80056 | 86.40729 | 34885 ft | 511 kts | 97° |
| 2026-04-30 00:26 | 22.79626 | 86.48406 | 34887 ft | 510 kts | 97° |
| 2026-04-30 00:27 | 22.79208 | 86.56083 | 34886 ft | 510 kts | 97° |
| 2026-04-30 00:27 | 22.78788 | 86.63742 | 34881 ft | 509 kts | 97° |
| 2026-04-30 00:28 | 22.78362 | 86.71388 | 34877 ft | 508 kts | 97° |
| 2026-04-30 00:28 | 22.77932 | 86.79022 | 34878 ft | 508 kts | 97° |
| 2026-04-30 00:29 | 22.77498 | 86.86656 | 34865 ft | 507 kts | 97° |
| 2026-04-30 00:29 | 22.77061 | 86.94291 | 34864 ft | 507 kts | 98° |
| 2026-04-30 00:30 | 22.76620 | 87.01916 | 34853 ft | 507 kts | 98° |
| 2026-04-30 00:30 | 22.76176 | 87.09549 | 34863 ft | 508 kts | 98° |
| 2026-04-30 00:31 | 22.75728 | 87.17191 | 34849 ft | 508 kts | 98° |
| 2026-04-30 00:31 | 22.75276 | 87.24834 | 34852 ft | 509 kts | 98° |
| 2026-04-30 00:32 | 22.74819 | 87.32480 | 34839 ft | 509 kts | 98° |
| 2026-04-30 00:32 | 22.74358 | 87.40143 | 34837 ft | 510 kts | 98° |
| 2026-04-30 00:33 | 22.73893 | 87.47818 | 34837 ft | 511 kts | 98° |
| 2026-04-30 00:33 | 22.73424 | 87.55509 | 34828 ft | 512 kts | 98° |
| 2026-04-30 00:34 | 22.72953 | 87.63162 | 34821 ft | 513 kts | 98° |
| 2026-04-30 00:34 | 22.72475 | 87.70871 | 34822 ft | 513 kts | 98° |
| 2026-04-30 00:35 | 22.71991 | 87.78593 | 34802 ft | 514 kts | 97° |
| 2026-04-30 00:35 | 22.71504 | 87.86329 | 34800 ft | 516 kts | 97° |
| 2026-04-30 00:36 | 22.71011 | 87.94086 | 34803 ft | 517 kts | 97° |
| 2026-04-30 00:36 | 22.70515 | 88.01851 | 34795 ft | 517 kts | 97° |
| 2026-04-30 00:37 | 22.70014 | 88.09627 | 34793 ft | 517 kts | 97° |
| 2026-04-30 00:37 | 22.69508 | 88.17403 | 34822 ft | 518 kts | 97° |
| 2026-04-30 00:38 | 22.68999 | 88.25187 | 34838 ft | 518 kts | 97° |
| 2026-04-30 00:38 | 22.68486 | 88.32979 | 34852 ft | 519 kts | 97° |
| 2026-04-30 00:39 | 22.67969 | 88.40767 | 34861 ft | 519 kts | 97° |
| 2026-04-30 00:39 | 22.67176 | 88.48505 | 34844 ft | 515 kts | 104° |
| 2026-04-30 00:40 | 22.65856 | 88.56132 | 34851 ft | 515 kts | 104° |
| 2026-04-30 00:40 | 22.64525 | 88.63764 | 34840 ft | 516 kts | 104° |
| 2026-04-30 00:41 | 22.63238 | 88.71367 | 34822 ft | 517 kts | 104° |
| 2026-04-30 00:41 | 22.61951 | 88.79026 | 34817 ft | 517 kts | 104° |
| 2026-04-30 00:42 | 22.60657 | 88.86688 | 34775 ft | 518 kts | 104° |
| 2026-04-30 00:42 | 22.59369 | 88.94362 | 34809 ft | 519 kts | 103° |
| 2026-04-30 00:43 | 22.58447 | 89.02124 | 34816 ft | 521 kts | 100° |
| 2026-04-30 00:43 | 22.57631 | 89.09927 | 34825 ft | 522 kts | 100° |
| 2026-04-30 00:44 | 22.56819 | 89.17560 | 34823 ft | 523 kts | 100° |
| 2026-04-30 00:44 | 22.55961 | 89.25369 | 34819 ft | 523 kts | 100° |
| 2026-04-30 00:45 | 22.55092 | 89.33169 | 34826 ft | 521 kts | 100° |
| 2026-04-30 00:45 | 22.54221 | 89.40939 | 34831 ft | 520 kts | 100° |
| 2026-04-30 00:46 | 22.53350 | 89.48693 | 34835 ft | 519 kts | 101° |
| 2026-04-30 00:46 | 22.52477 | 89.56435 | 34841 ft | 518 kts | 101° |
| 2026-04-30 00:47 | 22.51601 | 89.64167 | 34838 ft | 518 kts | 101° |
| 2026-04-30 00:47 | 22.50723 | 89.71889 | 34840 ft | 517 kts | 101° |
| 2026-04-30 00:48 | 22.49840 | 89.79612 | 34843 ft | 518 kts | 101° |
| 2026-04-30 00:48 | 22.48953 | 89.87340 | 34847 ft | 518 kts | 101° |
| 2026-04-30 00:49 | 22.48062 | 89.95073 | 34846 ft | 518 kts | 101° |
| 2026-04-30 00:49 | 22.47167 | 90.02809 | 34851 ft | 517 kts | 100° |
| 2026-04-30 00:50 | 22.46274 | 90.10506 | 34848 ft | 515 kts | 101° |
| 2026-04-30 00:50 | 22.45381 | 90.18164 | 34849 ft | 512 kts | 100° |
| 2026-04-30 00:51 | 22.44487 | 90.25791 | 34854 ft | 511 kts | 100° |
| 2026-04-30 00:51 | 22.43592 | 90.33396 | 34876 ft | 510 kts | 100° |
| 2026-04-30 00:52 | 22.42693 | 90.40996 | 34872 ft | 510 kts | 100° |
| 2026-04-30 00:52 | 22.41791 | 90.48598 | 34876 ft | 510 kts | 100° |
| 2026-04-30 00:53 | 22.40887 | 90.56194 | 34877 ft | 510 kts | 100° |
| 2026-04-30 00:53 | 22.39977 | 90.63797 | 34880 ft | 510 kts | 100° |
| 2026-04-30 00:54 | 22.39065 | 90.71397 | 34883 ft | 510 kts | 100° |
| 2026-04-30 00:54 | 22.38147 | 90.79007 | 34880 ft | 510 kts | 100° |
| 2026-04-30 00:55 | 22.37234 | 90.86553 | 34884 ft | 510 kts | 100° |
| 2026-04-30 00:55 | 22.35848 | 90.97948 | 34889 ft | 510 kts | 100° |
| 2026-04-30 00:56 | 22.34920 | 91.05539 | 34889 ft | 510 kts | 100° |
| 2026-04-30 00:56 | 22.33989 | 91.13132 | 34895 ft | 510 kts | 100° |
| 2026-04-30 00:57 | 22.33054 | 91.20718 | 34893 ft | 510 kts | 100° |
| 2026-04-30 00:57 | 22.32116 | 91.28302 | 34896 ft | 510 kts | 100° |
| 2026-04-30 00:58 | 22.31176 | 91.35885 | 34895 ft | 510 kts | 100° |
| 2026-04-30 00:58 | 22.30405 | 91.42247 | 34905 ft | 510 kts | 99° |
| 2026-04-30 00:59 | 22.29555 | 91.49852 | 34907 ft | 510 kts | 99° |
| 2026-04-30 00:59 | 22.28709 | 91.57411 | 34906 ft | 512 kts | 99° |
| 2026-04-30 01:00 | 22.27839 | 91.65059 | 34916 ft | 514 kts | 99° |
| 2026-04-30 01:00 | 22.26958 | 91.72740 | 34916 ft | 517 kts | 99° |
| 2026-04-30 01:01 | 22.26170 | 91.80478 | 34915 ft | 520 kts | 94° |
| 2026-04-30 01:01 | 22.26438 | 91.88295 | 34913 ft | 523 kts | 83° |
| 2026-04-30 01:02 | 22.27565 | 91.96046 | 34925 ft | 522 kts | 82° |
| 2026-04-30 01:02 | 22.28694 | 92.03774 | 34919 ft | 520 kts | 82° |
| 2026-04-30 01:03 | 22.29759 | 92.11471 | 34920 ft | 517 kts | 82° |
| 2026-04-30 01:03 | 22.30802 | 92.19138 | 34929 ft | 515 kts | 82° |
| 2026-04-30 01:04 | 22.31844 | 92.26787 | 34929 ft | 514 kts | 82° |
| 2026-04-30 01:04 | 22.32891 | 92.34426 | 34938 ft | 514 kts | 82° |
| 2026-04-30 01:05 | 22.33939 | 92.42054 | 34933 ft | 514 kts | 82° |
| 2026-04-30 01:05 | 22.34983 | 92.49686 | 34952 ft | 513 kts | 82° |
| 2026-04-30 01:06 | 22.36021 | 92.57314 | 34950 ft | 513 kts | 82° |
| 2026-04-30 01:06 | 22.37056 | 92.64946 | 34966 ft | 514 kts | 82° |
| 2026-04-30 01:07 | 22.38088 | 92.72588 | 34976 ft | 514 kts | 82° |
| 2026-04-30 01:07 | 22.39122 | 92.80240 | 34990 ft | 515 kts | 82° |
| 2026-04-30 01:08 | 22.40155 | 92.87905 | 34992 ft | 516 kts | 82° |
| 2026-04-30 01:08 | 22.41179 | 92.95529 | 35010 ft | 516 kts | 82° |
| 2026-04-30 01:09 | 22.42206 | 93.03207 | 34994 ft | 516 kts | 82° |
| 2026-04-30 01:09 | 22.43228 | 93.10882 | 35024 ft | 515 kts | 81° |
| 2026-04-30 01:10 | 22.44245 | 93.18534 | 35017 ft | 513 kts | 81° |
| 2026-04-30 01:10 | 22.45253 | 93.26153 | 35037 ft | 511 kts | 81° |
| 2026-04-30 01:11 | 22.46256 | 93.33758 | 35034 ft | 511 kts | 82° |
| 2026-04-30 01:11 | 22.47253 | 93.41352 | 35025 ft | 510 kts | 81° |
| 2026-04-30 01:12 | 22.48246 | 93.48946 | 35032 ft | 510 kts | 81° |
| 2026-04-30 01:12 | 22.49236 | 93.56538 | 35005 ft | 510 kts | 81° |
| 2026-04-30 01:13 | 22.50224 | 93.64143 | 35010 ft | 511 kts | 81° |
| 2026-04-30 01:13 | 22.51208 | 93.71747 | 35012 ft | 511 kts | 82° |
| 2026-04-30 01:14 | 22.52189 | 93.79365 | 35011 ft | 512 kts | 82° |
| 2026-04-30 01:14 | 22.53170 | 93.87006 | 34967 ft | 514 kts | 82° |
| 2026-04-30 01:15 | 22.54152 | 93.94675 | 34973 ft | 515 kts | 82° |
| 2026-04-30 01:15 | 22.55131 | 94.02362 | 34955 ft | 517 kts | 82° |
| 2026-04-30 01:16 | 22.56109 | 94.10070 | 34951 ft | 517 kts | 82° |
| 2026-04-30 01:16 | 22.57085 | 94.17787 | 34944 ft | 518 kts | 82° |
| 2026-04-30 01:17 | 22.58056 | 94.25499 | 34940 ft | 517 kts | 81° |
| 2026-04-30 01:17 | 22.59021 | 94.33197 | 34933 ft | 516 kts | 82° |
| 2026-04-30 01:18 | 22.59982 | 94.40885 | 34934 ft | 515 kts | 82° |
| 2026-04-30 01:18 | 22.60936 | 94.48550 | 34931 ft | 514 kts | 82° |
| 2026-04-30 01:19 | 22.61885 | 94.56206 | 34936 ft | 513 kts | 82° |
| 2026-04-30 01:19 | 22.62830 | 94.63865 | 34924 ft | 513 kts | 81° |
| 2026-04-30 01:20 | 22.63766 | 94.71474 | 34925 ft | 514 kts | 81° |
| 2026-04-30 01:20 | 22.64706 | 94.79142 | 34923 ft | 514 kts | 82° |
| 2026-04-30 01:21 | 22.65641 | 94.86813 | 34919 ft | 514 kts | 82° |
| 2026-04-30 01:21 | 22.66574 | 94.94492 | 34916 ft | 514 kts | 82° |
| 2026-04-30 01:22 | 22.67504 | 95.02172 | 34919 ft | 515 kts | 82° |
| 2026-04-30 01:22 | 22.68430 | 95.09854 | 34916 ft | 515 kts | 82° |
| 2026-04-30 01:23 | 22.69352 | 95.17543 | 34914 ft | 515 kts | 82° |
| 2026-04-30 01:23 | 22.70271 | 95.25232 | 34919 ft | 515 kts | 82° |
| 2026-04-30 01:24 | 22.71188 | 95.32930 | 34912 ft | 515 kts | 82° |
| 2026-04-30 01:24 | 22.72101 | 95.40630 | 34909 ft | 515 kts | 82° |
| 2026-04-30 01:25 | 22.73010 | 95.48336 | 34909 ft | 516 kts | 82° |
| 2026-04-30 01:25 | 22.73916 | 95.56043 | 34904 ft | 516 kts | 82° |
| 2026-04-30 01:26 | 22.74818 | 95.63748 | 34906 ft | 516 kts | 82° |
| 2026-04-30 01:26 | 22.75718 | 95.71467 | 34899 ft | 516 kts | 82° |
| 2026-04-30 01:27 | 22.76613 | 95.79176 | 34902 ft | 516 kts | 82° |
| 2026-04-30 01:27 | 22.77504 | 95.86885 | 34905 ft | 516 kts | 82° |
| 2026-04-30 01:28 | 22.78391 | 95.94599 | 34913 ft | 516 kts | 82° |
| 2026-04-30 01:28 | 22.79275 | 96.02313 | 34910 ft | 516 kts | 82° |
| 2026-04-30 01:29 | 22.80155 | 96.10029 | 34923 ft | 516 kts | 83° |
| 2026-04-30 01:29 | 22.81027 | 96.17698 | 34926 ft | 516 kts | 83° |
| 2026-04-30 01:30 | 22.81899 | 96.25409 | 34950 ft | 515 kts | 83° |
| 2026-04-30 01:30 | 22.82766 | 96.33116 | 34950 ft | 515 kts | 83° |
| 2026-04-30 01:31 | 22.83630 | 96.40823 | 34958 ft | 515 kts | 83° |
| 2026-04-30 01:31 | 22.84491 | 96.48534 | 34950 ft | 515 kts | 83° |
| 2026-04-30 01:32 | 22.85347 | 96.56232 | 34964 ft | 514 kts | 84° |
| 2026-04-30 01:32 | 22.86198 | 96.63928 | 34954 ft | 514 kts | 84° |
| 2026-04-30 01:33 | 22.87044 | 96.71613 | 34973 ft | 513 kts | 84° |
| 2026-04-30 01:33 | 22.87886 | 96.79298 | 34973 ft | 513 kts | 84° |
| 2026-04-30 01:34 | 22.88725 | 96.86988 | 34980 ft | 514 kts | 84° |
| 2026-04-30 01:34 | 22.89561 | 96.94683 | 34987 ft | 514 kts | 84° |
| 2026-04-30 01:35 | 22.90395 | 97.02390 | 34981 ft | 515 kts | 84° |
| 2026-04-30 01:35 | 22.91226 | 97.10111 | 34992 ft | 515 kts | 84° |
| 2026-04-30 01:36 | 22.92049 | 97.17787 | 34973 ft | 515 kts | 84° |
| 2026-04-30 01:36 | 22.92877 | 97.25557 | 34995 ft | 515 kts | 84° |
| 2026-04-30 01:37 | 22.93692 | 97.33232 | 34997 ft | 516 kts | 84° |
| 2026-04-30 01:37 | 22.94509 | 97.40966 | 35005 ft | 516 kts | 84° |
| 2026-04-30 01:38 | 22.95322 | 97.48696 | 35000 ft | 516 kts | 84° |
| 2026-04-30 01:38 | 22.96132 | 97.56438 | 35002 ft | 516 kts | 84° |
| 2026-04-30 01:39 | 22.96939 | 97.64180 | 34985 ft | 517 kts | 84° |
| 2026-04-30 01:39 | 22.97761 | 97.71938 | 34993 ft | 518 kts | 82° |
| 2026-04-30 01:40 | 22.99403 | 97.79541 | 34990 ft | 519 kts | 70° |
| 2026-04-30 01:40 | 23.01944 | 97.86871 | 34991 ft | 519 kts | 69° |
| 2026-04-30 01:41 | 23.04525 | 97.94202 | 35006 ft | 520 kts | 69° |
| 2026-04-30 01:41 | 23.07063 | 98.01554 | 35004 ft | 520 kts | 69° |
| 2026-04-30 01:42 | 23.09574 | 98.08919 | 35012 ft | 520 kts | 69° |
| 2026-04-30 01:42 | 23.12080 | 98.16294 | 35014 ft | 520 kts | 69° |
| 2026-04-30 01:43 | 23.14584 | 98.23666 | 35016 ft | 520 kts | 69° |
| 2026-04-30 01:43 | 23.17086 | 98.31039 | 35021 ft | 520 kts | 69° |
| 2026-04-30 01:44 | 23.19581 | 98.38405 | 35021 ft | 519 kts | 69° |
| 2026-04-30 01:44 | 23.22070 | 98.45766 | 35020 ft | 519 kts | 69° |
| 2026-04-30 01:45 | 23.24555 | 98.53127 | 35020 ft | 519 kts | 69° |
| 2026-04-30 01:45 | 23.27034 | 98.60486 | 35027 ft | 518 kts | 69° |
| 2026-04-30 01:46 | 23.29092 | 98.66605 | 35027 ft | 518 kts | 69° |
| 2026-04-30 01:46 | 23.31565 | 98.73968 | 35019 ft | 518 kts | 69° |
| 2026-04-30 01:47 | 23.34035 | 98.81338 | 35030 ft | 519 kts | 69° |
| 2026-04-30 01:47 | 23.36505 | 98.88719 | 35032 ft | 519 kts | 69° |
| 2026-04-30 01:48 | 23.38935 | 98.96123 | 35030 ft | 519 kts | 70° |
| 2026-04-30 01:48 | 23.41249 | 99.03580 | 35034 ft | 520 kts | 71° |
| 2026-04-30 01:49 | 23.43553 | 99.11043 | 35038 ft | 521 kts | 71° |
| 2026-04-30 01:49 | 23.45877 | 99.18509 | 35045 ft | 521 kts | 70° |
| 2026-04-30 01:50 | 23.48204 | 99.25983 | 35066 ft | 521 kts | 71° |
| 2026-04-30 01:50 | 23.50527 | 99.33463 | 35055 ft | 521 kts | 71° |
| 2026-04-30 01:51 | 23.52976 | 99.40895 | 35062 ft | 521 kts | 66° |
| 2026-04-30 01:51 | 23.56337 | 99.47814 | 35072 ft | 520 kts | 59° |
| 2026-04-30 01:52 | 23.59979 | 99.54624 | 35064 ft | 520 kts | 59° |
| 2026-04-30 01:52 | 23.63599 | 99.61464 | 35066 ft | 520 kts | 59° |
| 2026-04-30 01:53 | 23.67178 | 99.68318 | 35065 ft | 520 kts | 59° |
| 2026-04-30 01:53 | 23.70743 | 99.75180 | 35075 ft | 519 kts | 59° |
| 2026-04-30 01:54 | 23.74302 | 99.82040 | 35086 ft | 520 kts | 59° |
| 2026-04-30 01:54 | 23.77864 | 99.88909 | 35088 ft | 520 kts | 59° |
| 2026-04-30 01:55 | 23.81425 | 99.95779 | 35079 ft | 519 kts | 59° |
| 2026-04-30 01:55 | 23.84973 | 100.02639 | 35089 ft | 518 kts | 59° |
| 2026-04-30 01:56 | 23.88506 | 100.09479 | 35087 ft | 517 kts | 59° |
| 2026-04-30 01:56 | 23.92040 | 100.16326 | 35092 ft | 517 kts | 59° |
| 2026-04-30 01:57 | 23.95572 | 100.23182 | 35084 ft | 518 kts | 59° |
| 2026-04-30 01:57 | 23.99109 | 100.30059 | 35100 ft | 519 kts | 59° |
| 2026-04-30 01:58 | 24.02646 | 100.36944 | 35100 ft | 520 kts | 59° |
| 2026-04-30 01:58 | 24.06191 | 100.43856 | 35102 ft | 522 kts | 60° |
| 2026-04-30 01:59 | 24.11515 | 100.54256 | 35107 ft | 523 kts | 60° |
| 2026-04-30 02:00 | 24.15046 | 100.61220 | 35086 ft | 523 kts | 60° |
| 2026-04-30 02:00 | 24.18540 | 100.68207 | 35098 ft | 523 kts | 60° |
| 2026-04-30 02:01 | 24.22028 | 100.75194 | 35115 ft | 523 kts | 60° |
| 2026-04-30 02:01 | 24.25517 | 100.82180 | 35117 ft | 522 kts | 60° |
| 2026-04-30 02:02 | 24.29003 | 100.89161 | 35111 ft | 522 kts | 60° |
| 2026-04-30 02:02 | 24.32456 | 100.96089 | 35131 ft | 521 kts | 60° |
| 2026-04-30 02:03 | 24.35933 | 101.03075 | 35113 ft | 522 kts | 60° |
| 2026-04-30 02:03 | 24.39407 | 101.10065 | 35126 ft | 522 kts | 60° |
| 2026-04-30 02:04 | 24.42881 | 101.17065 | 35125 ft | 522 kts | 60° |
| 2026-04-30 02:04 | 24.46350 | 101.24068 | 35132 ft | 522 kts | 60° |
| 2026-04-30 02:05 | 24.49815 | 101.31072 | 35128 ft | 522 kts | 60° |
| 2026-04-30 02:05 | 24.53279 | 101.38085 | 35134 ft | 522 kts | 60° |
| 2026-04-30 02:06 | 24.56741 | 101.45105 | 35131 ft | 523 kts | 61° |
| 2026-04-30 02:06 | 24.60139 | 101.52161 | 35152 ft | 522 kts | 65° |
| 2026-04-30 02:07 | 24.62301 | 101.59766 | 35149 ft | 523 kts | 79° |
| 2026-04-30 02:07 | 24.62990 | 101.67701 | 35153 ft | 522 kts | 88° |
| 2026-04-30 02:08 | 24.63282 | 101.75673 | 35163 ft | 523 kts | 88° |
| 2026-04-30 02:08 | 24.63609 | 101.83662 | 35155 ft | 523 kts | 88° |
| 2026-04-30 02:09 | 24.63978 | 101.91658 | 35175 ft | 524 kts | 88° |
| 2026-04-30 02:09 | 24.64358 | 101.99660 | 35179 ft | 524 kts | 88° |
| 2026-04-30 02:10 | 24.64730 | 102.07670 | 35193 ft | 525 kts | 88° |
| 2026-04-30 02:10 | 24.65095 | 102.15683 | 35193 ft | 525 kts | 88° |
| 2026-04-30 02:11 | 24.65456 | 102.23699 | 35208 ft | 525 kts | 88° |
| 2026-04-30 02:11 | 24.65812 | 102.31711 | 35206 ft | 525 kts | 88° |
| 2026-04-30 02:12 | 24.66164 | 102.39721 | 35228 ft | 524 kts | 88° |
| 2026-04-30 02:12 | 24.66512 | 102.47727 | 35223 ft | 525 kts | 88° |
| 2026-04-30 02:13 | 24.66856 | 102.55744 | 35236 ft | 525 kts | 88° |
| 2026-04-30 02:13 | 24.67292 | 102.63705 | 35236 ft | 525 kts | 86° |
| 2026-04-30 02:14 | 24.67811 | 102.71762 | 35236 ft | 525 kts | 86° |
| 2026-04-30 02:14 | 24.67636 | 102.79710 | 35246 ft | 523 kts | 99° |
| 2026-04-30 02:15 | 24.65939 | 102.87460 | 35236 ft | 521 kts | 112° |
| 2026-04-30 02:15 | 24.63354 | 102.94890 | 35245 ft | 521 kts | 113° |
| 2026-04-30 02:16 | 24.60781 | 103.02336 | 35246 ft | 522 kts | 112° |
| 2026-04-30 02:16 | 24.58264 | 103.09821 | 35237 ft | 522 kts | 112° |
| 2026-04-30 02:17 | 24.56066 | 103.17427 | 35241 ft | 524 kts | 103° |
| 2026-04-30 02:17 | 24.55062 | 103.25355 | 35239 ft | 525 kts | 92° |
| 2026-04-30 02:18 | 24.54947 | 103.33373 | 35242 ft | 525 kts | 91° |
| 2026-04-30 02:18 | 24.54863 | 103.41398 | 35238 ft | 526 kts | 91° |
| 2026-04-30 02:19 | 24.54721 | 103.49424 | 35244 ft | 525 kts | 91° |
| 2026-04-30 02:19 | 24.54554 | 103.57446 | 35231 ft | 525 kts | 91° |
| 2026-04-30 02:20 | 24.54387 | 103.65463 | 35232 ft | 525 kts | 91° |
| 2026-04-30 02:20 | 24.54123 | 103.73463 | 35229 ft | 524 kts | 96° |
| 2026-04-30 02:21 | 24.52833 | 103.81320 | 35233 ft | 523 kts | 104° |
| 2026-04-30 02:21 | 24.51109 | 103.89081 | 35218 ft | 523 kts | 104° |
| 2026-04-30 02:22 | 24.49405 | 103.96843 | 35216 ft | 523 kts | 104° |
| 2026-04-30 02:22 | 24.47734 | 104.04619 | 35222 ft | 523 kts | 104° |
| 2026-04-30 02:23 | 24.46070 | 104.12403 | 35211 ft | 524 kts | 104° |
| 2026-04-30 02:23 | 24.44402 | 104.20192 | 35212 ft | 525 kts | 104° |
| 2026-04-30 02:24 | 24.42724 | 104.27990 | 35185 ft | 525 kts | 104° |
| 2026-04-30 02:24 | 24.41039 | 104.35791 | 35189 ft | 526 kts | 104° |
| 2026-04-30 02:25 | 24.39349 | 104.43599 | 35181 ft | 526 kts | 104° |
| 2026-04-30 02:25 | 24.37655 | 104.51403 | 35157 ft | 526 kts | 104° |
| 2026-04-30 02:26 | 24.35957 | 104.59205 | 35165 ft | 526 kts | 104° |
| 2026-04-30 02:26 | 24.34257 | 104.66996 | 35153 ft | 525 kts | 104° |
| 2026-04-30 02:27 | 24.32555 | 104.74780 | 35152 ft | 525 kts | 104° |
| 2026-04-30 02:27 | 24.30849 | 104.82556 | 35154 ft | 525 kts | 104° |
| 2026-04-30 02:28 | 24.29141 | 104.90328 | 35151 ft | 524 kts | 104° |
| 2026-04-30 02:28 | 24.27439 | 104.98045 | 35144 ft | 524 kts | 104° |
| 2026-04-30 02:29 | 24.25728 | 105.05792 | 35144 ft | 523 kts | 104° |
| 2026-04-30 02:29 | 24.24014 | 105.13528 | 35143 ft | 522 kts | 104° |
| 2026-04-30 02:30 | 24.22301 | 105.21244 | 35135 ft | 521 kts | 104° |
| 2026-04-30 02:30 | 24.20501 | 105.28920 | 35141 ft | 520 kts | 105° |
| 2026-04-30 02:31 | 24.18621 | 105.36567 | 35145 ft | 520 kts | 105° |
| 2026-04-30 02:31 | 24.16749 | 105.44221 | 35145 ft | 521 kts | 105° |
| 2026-04-30 02:32 | 24.14888 | 105.51882 | 35143 ft | 521 kts | 105° |
| 2026-04-30 02:32 | 24.13328 | 105.58299 | 35141 ft | 521 kts | 105° |
| 2026-04-30 02:33 | 24.11471 | 105.65916 | 35150 ft | 521 kts | 105° |
| 2026-04-30 02:33 | 24.09638 | 105.73595 | 35144 ft | 522 kts | 103° |
| 2026-04-30 02:34 | 24.08098 | 105.81368 | 35139 ft | 522 kts | 102° |
| 2026-04-30 02:34 | 24.06626 | 105.89153 | 35147 ft | 523 kts | 102° |
| 2026-04-30 02:35 | 24.05103 | 105.96932 | 35141 ft | 523 kts | 102° |
| 2026-04-30 02:35 | 24.03545 | 106.04707 | 35143 ft | 523 kts | 102° |
| 2026-04-30 02:36 | 24.01980 | 106.12471 | 35141 ft | 523 kts | 102° |
| 2026-04-30 02:36 | 24.00415 | 106.20232 | 35141 ft | 522 kts | 102° |
| 2026-04-30 02:37 | 23.98850 | 106.27983 | 35152 ft | 522 kts | 102° |
| 2026-04-30 02:37 | 23.97280 | 106.35738 | 35144 ft | 522 kts | 102° |
| 2026-04-30 02:38 | 23.95707 | 106.43487 | 35138 ft | 522 kts | 102° |
| 2026-04-30 02:38 | 23.94132 | 106.51227 | 35143 ft | 521 kts | 102° |
| 2026-04-30 02:39 | 23.92572 | 106.58963 | 35148 ft | 521 kts | 101° |
| 2026-04-30 02:39 | 23.91754 | 106.66822 | 35151 ft | 520 kts | 93° |
| 2026-04-30 02:40 | 23.91301 | 106.74720 | 35142 ft | 521 kts | 93° |
| 2026-04-30 02:40 | 23.90826 | 106.82618 | 35147 ft | 521 kts | 94° |
| 2026-04-30 02:41 | 23.90309 | 106.90531 | 35152 ft | 522 kts | 94° |
| 2026-04-30 02:41 | 23.89775 | 106.98435 | 35151 ft | 522 kts | 94° |
| 2026-04-30 02:42 | 23.89236 | 107.06353 | 35145 ft | 522 kts | 94° |
| 2026-04-30 02:42 | 23.88697 | 107.14261 | 35151 ft | 522 kts | 94° |
| 2026-04-30 02:43 | 23.88154 | 107.22180 | 35147 ft | 522 kts | 94° |
| 2026-04-30 02:43 | 23.87611 | 107.30041 | 35151 ft | 522 kts | 94° |
| 2026-04-30 02:44 | 23.87060 | 107.37946 | 35145 ft | 522 kts | 94° |
| 2026-04-30 02:44 | 23.86506 | 107.45851 | 35152 ft | 522 kts | 94° |
| 2026-04-30 02:45 | 23.85947 | 107.53758 | 35153 ft | 522 kts | 94° |
| 2026-04-30 02:45 | 23.85384 | 107.61668 | 35146 ft | 522 kts | 95° |
| 2026-04-30 02:46 | 23.84817 | 107.69577 | 35150 ft | 522 kts | 95° |
| 2026-04-30 02:46 | 23.84246 | 107.77483 | 35154 ft | 522 kts | 95° |
| 2026-04-30 02:47 | 23.83673 | 107.85387 | 35158 ft | 522 kts | 95° |
| 2026-04-30 02:47 | 23.83234 | 107.93310 | 35148 ft | 523 kts | 93° |
| 2026-04-30 02:48 | 23.82868 | 108.01233 | 35152 ft | 522 kts | 93° |
| 2026-04-30 02:48 | 23.82469 | 108.09156 | 35155 ft | 522 kts | 94° |
| 2026-04-30 02:49 | 23.82054 | 108.17075 | 35160 ft | 522 kts | 94° |
| 2026-04-30 02:49 | 23.81616 | 108.24991 | 35159 ft | 523 kts | 94° |
| 2026-04-30 02:50 | 23.81162 | 108.32916 | 35157 ft | 523 kts | 94° |
| 2026-04-30 02:50 | 23.80707 | 108.40840 | 35155 ft | 523 kts | 94° |
| 2026-04-30 02:51 | 23.80251 | 108.48763 | 35157 ft | 523 kts | 94° |
| 2026-04-30 02:51 | 23.79792 | 108.56679 | 35157 ft | 523 kts | 94° |
| 2026-04-30 02:52 | 23.79328 | 108.64601 | 35161 ft | 522 kts | 94° |
| 2026-04-30 02:52 | 23.78864 | 108.72462 | 35160 ft | 522 kts | 94° |
| 2026-04-30 02:53 | 23.78392 | 108.80371 | 35161 ft | 522 kts | 94° |
| 2026-04-30 02:53 | 23.77917 | 108.88281 | 35164 ft | 522 kts | 94° |
| 2026-04-30 02:54 | 23.77438 | 108.96183 | 35158 ft | 522 kts | 94° |
| 2026-04-30 02:54 | 23.76955 | 109.04086 | 35157 ft | 522 kts | 94° |
| 2026-04-30 02:55 | 23.76468 | 109.11988 | 35155 ft | 521 kts | 95° |
| 2026-04-30 02:55 | 23.75394 | 109.19795 | 35158 ft | 520 kts | 104° |
| 2026-04-30 02:56 | 23.73778 | 109.27480 | 35158 ft | 520 kts | 104° |
| 2026-04-30 02:56 | 23.72176 | 109.35171 | 35153 ft | 520 kts | 104° |
| 2026-04-30 02:57 | 23.70614 | 109.42882 | 35151 ft | 520 kts | 103° |
| 2026-04-30 02:57 | 23.69057 | 109.50592 | 35151 ft | 520 kts | 103° |
| 2026-04-30 02:58 | 23.67492 | 109.58300 | 35148 ft | 520 kts | 103° |
| 2026-04-30 02:58 | 23.65918 | 109.66008 | 35149 ft | 520 kts | 104° |
| 2026-04-30 02:59 | 23.64342 | 109.73658 | 35149 ft | 521 kts | 104° |
| 2026-04-30 02:59 | 23.62750 | 109.81365 | 35144 ft | 521 kts | 103° |
| 2026-04-30 03:00 | 23.61145 | 109.89125 | 35146 ft | 521 kts | 104° |
| 2026-04-30 03:00 | 23.59545 | 109.96838 | 35143 ft | 522 kts | 104° |
| 2026-04-30 03:01 | 23.57951 | 110.04506 | 35145 ft | 522 kts | 104° |
| 2026-04-30 03:01 | 23.56344 | 110.12220 | 35139 ft | 522 kts | 104° |
| 2026-04-30 03:02 | 23.54732 | 110.19937 | 35135 ft | 522 kts | 103° |
| 2026-04-30 03:02 | 23.53114 | 110.27662 | 35135 ft | 523 kts | 103° |
| 2026-04-30 03:03 | 23.51493 | 110.35381 | 35127 ft | 523 kts | 104° |
| 2026-04-30 03:03 | 23.49119 | 110.46975 | 35128 ft | 523 kts | 103° |
| 2026-04-30 03:04 | 23.47553 | 110.54719 | 35126 ft | 523 kts | 103° |
| 2026-04-30 03:04 | 23.45974 | 110.62459 | 35128 ft | 524 kts | 103° |
| 2026-04-30 03:05 | 23.44389 | 110.70201 | 35122 ft | 524 kts | 103° |
| 2026-04-30 03:05 | 23.42780 | 110.77939 | 35121 ft | 524 kts | 104° |
| 2026-04-30 03:06 | 23.41133 | 110.85670 | 35119 ft | 524 kts | 104° |
| 2026-04-30 03:06 | 23.39484 | 110.93402 | 35122 ft | 524 kts | 103° |
| 2026-04-30 03:07 | 23.37850 | 111.01082 | 35120 ft | 524 kts | 104° |
| 2026-04-30 03:07 | 23.36215 | 111.08746 | 35119 ft | 524 kts | 104° |
| 2026-04-30 03:08 | 23.34566 | 111.16478 | 35120 ft | 524 kts | 103° |
| 2026-04-30 03:08 | 23.32990 | 111.24224 | 35121 ft | 524 kts | 103° |
| 2026-04-30 03:09 | 23.31438 | 111.31973 | 35117 ft | 524 kts | 103° |
| 2026-04-30 03:09 | 23.29870 | 111.39713 | 35114 ft | 524 kts | 103° |
| 2026-04-30 03:10 | 23.28293 | 111.47449 | 35117 ft | 524 kts | 103° |
| 2026-04-30 03:10 | 23.26708 | 111.55175 | 35120 ft | 523 kts | 103° |
| 2026-04-30 03:11 | 23.25059 | 111.62887 | 35119 ft | 524 kts | 104° |
| 2026-04-30 03:11 | 23.23397 | 111.70594 | 35118 ft | 524 kts | 104° |
| 2026-04-30 03:12 | 23.21745 | 111.78300 | 35115 ft | 524 kts | 104° |
| 2026-04-30 03:12 | 23.20097 | 111.86010 | 35113 ft | 524 kts | 103° |
| 2026-04-30 03:13 | 23.18496 | 111.93735 | 35118 ft | 524 kts | 103° |
| 2026-04-30 03:13 | 23.16902 | 112.01463 | 35114 ft | 524 kts | 103° |
| 2026-04-30 03:14 | 23.15295 | 112.09198 | 35114 ft | 524 kts | 103° |
| 2026-04-30 03:14 | 23.13680 | 112.16925 | 35108 ft | 525 kts | 104° |
| 2026-04-30 03:15 | 23.12058 | 112.24664 | 35110 ft | 526 kts | 104° |
| 2026-04-30 03:15 | 23.10432 | 112.32411 | 35117 ft | 527 kts | 104° |
| 2026-04-30 03:16 | 23.08798 | 112.40179 | 35109 ft | 528 kts | 104° |
| 2026-04-30 03:16 | 23.07195 | 112.47960 | 35106 ft | 529 kts | 102° |
| 2026-04-30 03:17 | 23.06406 | 112.55906 | 35116 ft | 530 kts | 94° |
| 2026-04-30 03:17 | 23.05947 | 112.63907 | 35107 ft | 532 kts | 94° |
| 2026-04-30 03:18 | 23.05452 | 112.71922 | 35113 ft | 532 kts | 95° |
| 2026-04-30 03:18 | 23.04911 | 112.79935 | 35107 ft | 533 kts | 95° |
| 2026-04-30 03:19 | 23.04451 | 112.86612 | 35107 ft | 534 kts | 95° |
| 2026-04-30 03:19 | 23.03802 | 112.96017 | 35111 ft | 535 kts | 95° |
| 2026-04-30 03:20 | 23.03339 | 113.02714 | 35107 ft | 536 kts | 95° |
| 2026-04-30 03:20 | 23.02778 | 113.10782 | 35094 ft | 536 kts | 95° |
| 2026-04-30 03:21 | 23.01322 | 113.18612 | 35108 ft | 526 kts | 118° |
| 2026-04-30 03:21 | 22.99448 | 113.21966 | 35105 ft | 519 kts | 133° |
| 2026-04-30 03:21 | 22.96917 | 113.24694 | 35103 ft | 509 kts | 143° |
| 2026-04-30 03:22 | 22.91609 | 113.29858 | 35101 ft | 516 kts | 141° |
| 2026-04-30 03:22 | 22.86348 | 113.35196 | 35100 ft | 519 kts | 140° |
| 2026-04-30 03:23 | 22.81093 | 113.40594 | 35092 ft | 520 kts | 140° |
| 2026-04-30 03:23 | 22.75839 | 113.45979 | 35078 ft | 519 kts | 140° |
| 2026-04-30 03:24 | 22.70590 | 113.51340 | 35093 ft | 518 kts | 141° |
| 2026-04-30 03:24 | 22.65355 | 113.56676 | 35092 ft | 516 kts | 141° |
| 2026-04-30 03:25 | 22.60130 | 113.61995 | 35093 ft | 515 kts | 141° |
| 2026-04-30 03:25 | 22.54914 | 113.67301 | 35096 ft | 514 kts | 141° |
| 2026-04-30 03:26 | 22.49700 | 113.72601 | 35078 ft | 514 kts | 141° |
| 2026-04-30 03:26 | 22.44485 | 113.77896 | 35079 ft | 514 kts | 141° |
| 2026-04-30 03:27 | 22.38859 | 113.82405 | 34983 ft | 493 kts | 163° |
| 2026-04-30 03:27 | 22.35599 | 113.83282 | 34817 ft | 477 kts | 180° |
| 2026-04-30 03:27 | 22.32315 | 113.83262 | 34519 ft | 469 kts | 191° |
| 2026-04-30 03:28 | 22.29117 | 113.82642 | 34139 ft | 465 kts | 200° |
| 2026-04-30 03:28 | 22.26159 | 113.81320 | 33682 ft | 457 kts | 212° |
| 2026-04-30 03:28 | 22.23379 | 113.79657 | 33445 ft | 456 kts | 212° |
| 2026-04-30 03:28 | 22.20604 | 113.77998 | 33174 ft | 456 kts | 212° |
| 2026-04-30 03:29 | 22.17821 | 113.76350 | 32920 ft | 456 kts | 212° |
| 2026-04-30 03:29 | 22.15037 | 113.74720 | 32675 ft | 455 kts | 212° |
| 2026-04-30 03:29 | 22.12255 | 113.73106 | 32430 ft | 454 kts | 212° |
| 2026-04-30 03:29 | 22.09471 | 113.71502 | 32185 ft | 453 kts | 212° |
| 2026-04-30 03:30 | 22.06723 | 113.69925 | 31946 ft | 452 kts | 212° |
| 2026-04-30 03:30 | 22.03912 | 113.68314 | 31701 ft | 452 kts | 212° |
| 2026-04-30 03:30 | 22.01177 | 113.66748 | 31471 ft | 450 kts | 211° |
| 2026-04-30 03:30 | 21.98411 | 113.65166 | 31226 ft | 449 kts | 211° |
| 2026-04-30 03:31 | 21.95652 | 113.63588 | 30993 ft | 448 kts | 211° |
| 2026-04-30 03:31 | 21.92903 | 113.62015 | 30746 ft | 447 kts | 211° |
| 2026-04-30 03:31 | 21.90160 | 113.60447 | 30507 ft | 447 kts | 211° |
| 2026-04-30 03:31 | 21.87416 | 113.58878 | 30287 ft | 446 kts | 211° |
| 2026-04-30 03:32 | 21.84680 | 113.57315 | 30040 ft | 445 kts | 211° |
| 2026-04-30 03:32 | 21.81951 | 113.55757 | 29771 ft | 444 kts | 211° |
| 2026-04-30 03:32 | 21.79230 | 113.54204 | 29499 ft | 442 kts | 211° |
| 2026-04-30 03:32 | 21.76513 | 113.52653 | 29240 ft | 441 kts | 211° |
| 2026-04-30 03:33 | 21.73805 | 113.51108 | 28983 ft | 440 kts | 211° |
| 2026-04-30 03:33 | 21.71109 | 113.49570 | 28715 ft | 438 kts | 211° |
| 2026-04-30 03:33 | 21.68427 | 113.48040 | 28459 ft | 436 kts | 211° |
| 2026-04-30 03:33 | 21.65751 | 113.46515 | 28205 ft | 434 kts | 211° |
| 2026-04-30 03:34 | 21.60467 | 113.43505 | 28063 ft | 429 kts | 211° |
| 2026-04-30 03:34 | 21.55181 | 113.40493 | 28055 ft | 431 kts | 211° |
| 2026-04-30 03:35 | 21.49869 | 113.37471 | 28054 ft | 433 kts | 211° |
| 2026-04-30 03:35 | 21.44547 | 113.34446 | 28056 ft | 433 kts | 211° |
| 2026-04-30 03:36 | 21.39226 | 113.31425 | 28039 ft | 432 kts | 211° |
| 2026-04-30 03:36 | 21.33912 | 113.28408 | 28042 ft | 432 kts | 211° |
| 2026-04-30 03:37 | 21.28596 | 113.25435 | 28041 ft | 429 kts | 206° |
| 2026-04-30 03:37 | 21.25737 | 113.24627 | 28052 ft | 437 kts | 189° |
| 2026-04-30 03:37 | 21.22674 | 113.24720 | 28062 ft | 446 kts | 174° |
| 2026-04-30 03:38 | 21.19662 | 113.25622 | 28053 ft | 454 kts | 160° |
| 2026-04-30 03:38 | 21.16900 | 113.27305 | 28044 ft | 462 kts | 145° |
| 2026-04-30 03:38 | 21.14607 | 113.29748 | 28044 ft | 470 kts | 128° |
| 2026-04-30 03:38 | 21.13019 | 113.32814 | 28039 ft | 475 kts | 111° |
| 2026-04-30 03:39 | 21.12265 | 113.36269 | 27680 ft | 481 kts | 94° |
| 2026-04-30 03:39 | 21.12480 | 113.39823 | 27183 ft | 478 kts | 76° |
| 2026-04-30 03:39 | 21.13571 | 113.43153 | 26711 ft | 471 kts | 62° |
| 2026-04-30 03:39 | 21.15339 | 113.46033 | 26198 ft | 451 kts | 45° |
| 2026-04-30 03:40 | 21.17477 | 113.48337 | 25705 ft | 424 kts | 41° |
| 2026-04-30 03:40 | 21.19557 | 113.50470 | 25211 ft | 404 kts | 41° |
| 2026-04-30 03:40 | 21.21550 | 113.52530 | 24764 ft | 397 kts | 41° |
| 2026-04-30 03:40 | 21.23517 | 113.54600 | 24320 ft | 394 kts | 42° |
| 2026-04-30 03:41 | 21.25440 | 113.56659 | 23752 ft | 387 kts | 42° |
| 2026-04-30 03:41 | 21.27320 | 113.58690 | 23129 ft | 381 kts | 42° |
| 2026-04-30 03:41 | 21.29190 | 113.60661 | 22540 ft | 372 kts | 37° |
| 2026-04-30 03:41 | 21.31346 | 113.62073 | 21928 ft | 360 kts | 18° |
| 2026-04-30 03:42 | 21.33683 | 113.63039 | 21432 ft | 364 kts | 17° |
| 2026-04-30 03:42 | 21.36074 | 113.64032 | 20914 ft | 372 kts | 18° |
| 2026-04-30 03:42 | 21.38497 | 113.65068 | 20381 ft | 376 kts | 18° |
| 2026-04-30 03:42 | 21.40925 | 113.66129 | 19869 ft | 378 kts | 18° |
| 2026-04-30 03:43 | 21.43365 | 113.67204 | 19338 ft | 380 kts | 19° |
| 2026-04-30 03:43 | 21.45818 | 113.68289 | 18832 ft | 382 kts | 19° |
| 2026-04-30 03:43 | 21.48276 | 113.69395 | 18325 ft | 384 kts | 19° |
| 2026-04-30 03:43 | 21.50739 | 113.70514 | 17751 ft | 385 kts | 19° |
| 2026-04-30 03:44 | 21.53211 | 113.71640 | 17184 ft | 386 kts | 19° |
| 2026-04-30 03:44 | 21.55684 | 113.72766 | 16621 ft | 386 kts | 19° |
| 2026-04-30 03:44 | 21.58158 | 113.73892 | 16100 ft | 386 kts | 19° |
| 2026-04-30 03:44 | 21.60624 | 113.75014 | 15627 ft | 384 kts | 19° |
| 2026-04-30 03:45 | 21.63077 | 113.76129 | 15218 ft | 380 kts | 19° |
| 2026-04-30 03:45 | 21.65495 | 113.77230 | 14873 ft | 376 kts | 19° |
| 2026-04-30 03:45 | 21.67891 | 113.78320 | 14485 ft | 372 kts | 19° |
| 2026-04-30 03:45 | 21.70228 | 113.79382 | 14120 ft | 368 kts | 19° |
| 2026-04-30 03:46 | 21.72572 | 113.80449 | 13755 ft | 364 kts | 19° |
| 2026-04-30 03:46 | 21.74896 | 113.81506 | 13344 ft | 361 kts | 19° |
| 2026-04-30 03:46 | 21.77196 | 113.82553 | 12939 ft | 357 kts | 19° |
| 2026-04-30 03:46 | 21.79474 | 113.83590 | 12559 ft | 354 kts | 19° |
| 2026-04-30 03:47 | 21.81726 | 113.84617 | 12255 ft | 348 kts | 19° |
| 2026-04-30 03:47 | 21.83941 | 113.85627 | 11959 ft | 343 kts | 19° |
| 2026-04-30 03:47 | 21.86120 | 113.86620 | 11674 ft | 341 kts | 19° |
| 2026-04-30 03:47 | 21.88319 | 113.87622 | 11383 ft | 344 kts | 19° |
| 2026-04-30 03:48 | 21.90529 | 113.88628 | 11111 ft | 346 kts | 20° |
| 2026-04-30 03:48 | 21.92745 | 113.89639 | 10853 ft | 345 kts | 20° |
| 2026-04-30 03:48 | 21.94952 | 113.90647 | 10571 ft | 344 kts | 20° |
| 2026-04-30 03:48 | 21.97150 | 113.91651 | 10297 ft | 343 kts | 20° |
| 2026-04-30 03:49 | 21.99340 | 113.92652 | 10027 ft | 341 kts | 20° |
| 2026-04-30 03:49 | 22.01523 | 113.93649 | 9727 ft | 340 kts | 20° |
| 2026-04-30 03:49 | 22.03695 | 113.94643 | 9427 ft | 339 kts | 20° |
| 2026-04-30 03:49 | 22.05859 | 113.95632 | 9127 ft | 337 kts | 20° |
| 2026-04-30 03:50 | 22.08011 | 113.96617 | 8836 ft | 335 kts | 20° |
| 2026-04-30 03:50 | 22.10147 | 113.97595 | 8539 ft | 333 kts | 20° |
| 2026-04-30 03:50 | 22.12270 | 113.98567 | 8244 ft | 330 kts | 20° |
| 2026-04-30 03:50 | 22.14372 | 113.99530 | 8069 ft | 324 kts | 20° |
| 2026-04-30 03:51 | 22.16416 | 114.00468 | 8007 ft | 314 kts | 20° |
| 2026-04-30 03:51 | 22.18377 | 114.01368 | 7975 ft | 293 kts | 20° |
| 2026-04-30 03:51 | 22.20151 | 114.02185 | 7956 ft | 262 kts | 20° |
| 2026-04-30 03:51 | 22.21750 | 114.02920 | 7845 ft | 240 kts | 18° |
| 2026-04-30 03:52 | 22.23300 | 114.03502 | 7362 ft | 234 kts | 12° |
| 2026-04-30 03:52 | 22.24846 | 114.03978 | 6886 ft | 228 kts | 12° |
| 2026-04-30 03:52 | 22.26349 | 114.04435 | 6499 ft | 219 kts | 12° |
| 2026-04-30 03:52 | 22.27777 | 114.04874 | 6068 ft | 210 kts | 12° |
| 2026-04-30 03:53 | 22.29160 | 114.05304 | 5597 ft | 204 kts | 12° |
| 2026-04-30 03:53 | 22.30519 | 114.05728 | 5016 ft | 205 kts | 12° |
| 2026-04-30 03:53 | 22.31923 | 114.06134 | 4292 ft | 211 kts | 7° |
| 2026-04-30 03:53 | 22.33308 | 114.05864 | 3716 ft | 204 kts | 327° |
| 2026-04-30 03:54 | 22.34066 | 114.04597 | 3231 ft | 205 kts | 284° |
| 2026-04-30 03:54 | 22.33894 | 114.03145 | 3120 ft | 192 kts | 247° |
| 2026-04-30 03:54 | 22.33054 | 114.02105 | 2862 ft | 178 kts | 211° |
| 2026-04-30 03:54 | 22.31885 | 114.01768 | 2407 ft | 174 kts | 175° |
| 2026-04-30 03:55 | 22.30806 | 114.02133 | 2035 ft | 165 kts | 142° |
| 2026-04-30 03:55 | 22.30096 | 114.03035 | 1926 ft | 152 kts | 114° |
| 2026-04-30 03:55 | 22.29667 | 114.04091 | 2129 ft | 155 kts | 103° |
| 2026-04-30 03:55 | 22.29481 | 114.05212 | 2450 ft | 149 kts | 84° |
| 2026-04-30 03:56 | 22.29529 | 114.06342 | 2784 ft | 154 kts | 79° |
| 2026-04-30 03:56 | 22.29663 | 114.07495 | 2740 ft | 153 kts | 75° |
| 2026-04-30 03:56 | 22.29817 | 114.08610 | 2712 ft | 151 kts | 82° |
| 2026-04-30 03:56 | 22.29871 | 114.09749 | 2662 ft | 153 kts | 83° |
| 2026-04-30 03:57 | 22.30059 | 114.10874 | 2334 ft | 149 kts | 67° |
| 2026-04-30 03:57 | 22.30466 | 114.11847 | 2043 ft | 137 kts | 58° |
| 2026-04-30 03:57 | 22.30919 | 114.12771 | 1887 ft | 140 kts | 57° |
| 2026-04-30 03:57 | 22.31378 | 114.13695 | 1693 ft | 139 kts | 56° |
| 2026-04-30 03:58 | 22.31764 | 114.14628 | 1511 ft | 140 kts | 69° |
| 2026-04-30 03:58 | 22.31809 | 114.15713 | 1315 ft | 150 kts | 77° |
| 2026-04-30 03:58 | 22.32267 | 114.16679 | 1006 ft | 143 kts | 49° |
| 2026-04-30 03:58 | 22.32851 | 114.17511 | 765 ft | 138 kts | 47° |
| 2026-04-30 03:59 | 22.33105 | 114.18460 | 511 ft | 139 kts | 102° |
| 2026-04-30 03:59 | 22.32489 | 114.19280 | 155 ft | 142 kts | 130° |
| 2026-04-30 03:59 | 22.31853 | 114.20026 | 46 ft | 126 kts | 133° |
| 2026-04-30 03:59 | 22.31268 | 114.20687 | 112 ft | 146 kts | 133° |
| 2026-04-30 04:00 | 22.30435 | 114.21475 | 1136 ft | 160 kts | 140° |
| 2026-04-30 04:00 | 22.29464 | 114.21949 | 1252 ft | 162 kts | 169° |
| 2026-04-30 04:00 | 22.28313 | 114.21766 | 1005 ft | 175 kts | 207° |
| 2026-04-30 04:00 | 22.27214 | 114.21174 | 1289 ft | 172 kts | 210° |
| 2026-04-30 04:01 | 22.26319 | 114.20405 | 2184 ft | 163 kts | 248° |
| 2026-04-30 04:01 | 22.26185 | 114.19100 | 2320 ft | 178 kts | 289° |
| 2026-04-30 04:01 | 22.26704 | 114.17907 | 2314 ft | 174 kts | 304° |
| 2026-04-30 04:01 | 22.27310 | 114.16780 | 2160 ft | 173 kts | 308° |
| 2026-04-30 04:02 | 22.28018 | 114.15756 | 2002 ft | 166 kts | 317° |
| 2026-04-30 04:02 | 22.28811 | 114.14916 | 1887 ft | 151 kts | 326° |
| 2026-04-30 04:02 | 22.29704 | 114.14489 | 1687 ft | 139 kts | 359° |
| 2026-04-30 04:02 | 22.30556 | 114.14862 | 1433 ft | 132 kts | 41° |
| 2026-04-30 04:03 | 22.31075 | 114.15674 | 1105 ft | 133 kts | 53° |
| 2026-04-30 04:03 | 22.31628 | 114.16439 | 1012 ft | 128 kts | 44° |
| 2026-04-30 04:03 | 22.32207 | 114.17109 | 946 ft | 121 kts | 41° |
| 2026-04-30 04:03 | 22.32756 | 114.17850 | 823 ft | 128 kts | 70° |
| 2026-04-30 04:04 | 22.32734 | 114.18888 | 479 ft | 152 kts | 107° |
| 2026-04-30 04:04 | 22.32079 | 114.19745 | 101 ft | 146 kts | 129° |
| 2026-04-30 04:04 | 22.31270 | 114.20614 | 631 ft | 163 kts | 130° |
| 2026-04-30 04:04 | 22.30456 | 114.21397 | 1138 ft | 151 kts | 137° |
| 2026-04-30 04:05 | 22.29552 | 114.22029 | 1346 ft | 170 kts | 159° |
| 2026-04-30 04:05 | 22.28408 | 114.22073 | 1646 ft | 163 kts | 194° |
| 2026-04-30 04:05 | 22.27423 | 114.21591 | 1799 ft | 151 kts | 215° |
| 2026-04-30 04:05 | 22.26754 | 114.20784 | 1783 ft | 137 kts | 249° |
| 2026-04-30 04:06 | 22.26283 | 114.19802 | 1975 ft | 164 kts | 249° |
| 2026-04-30 04:06 | 22.25937 | 114.18649 | 2159 ft | 161 kts | 258° |
| 2026-04-30 04:06 | 22.25671 | 114.17511 | 2348 ft | 167 kts | 259° |
| 2026-04-30 04:06 | 22.25424 | 114.16333 | 2553 ft | 159 kts | 275° |
| 2026-04-30 04:07 | 22.25810 | 114.15278 | 2498 ft | 151 kts | 312° |
| 2026-04-30 04:07 | 22.26448 | 114.14363 | 2477 ft | 154 kts | 311° |
| 2026-04-30 04:07 | 22.27099 | 114.13439 | 2376 ft | 146 kts | 316° |
| 2026-04-30 04:08 | 22.28688 | 114.12144 | 1888 ft | 134 kts | 343° |
| 2026-04-30 04:08 | 22.29548 | 114.11962 | 1747 ft | 127 kts | 2° |
| 2026-04-30 04:08 | 22.30396 | 114.12196 | 1648 ft | 130 kts | 39° |
| 2026-04-30 04:08 | 22.30735 | 114.12737 | 1691 ft | 135 kts | 57° |
| 2026-04-30 04:09 | 22.31142 | 114.13681 | 1676 ft | 138 kts | 60° |
| 2026-04-30 04:09 | 22.31536 | 114.14613 | 1440 ft | 136 kts | 61° |
| 2026-04-30 04:09 | 22.31931 | 114.15549 | 1114 ft | 140 kts | 57° |
| 2026-04-30 04:09 | 22.32409 | 114.16463 | 952 ft | 143 kts | 56° |
| 2026-04-30 04:10 | 22.32957 | 114.17403 | 736 ft | 149 kts | 56° |
| 2026-04-30 04:10 | 22.33070 | 114.18486 | 508 ft | 151 kts | 110° |
| 2026-04-30 04:10 | 22.32411 | 114.19374 | 155 ft | 149 kts | 128° |
| 2026-04-30 04:10 | 22.31731 | 114.20143 | 46 ft | 128 kts | 129° |
| 2026-04-30 04:11 | 22.31244 | 114.20693 | 45 ft | 74 kts | 134° |
| 2026-04-30 04:11 | 22.31006 | 114.20960 | 45 ft | 30 kts | 134° |
| 2026-04-30 04:11 | 22.30971 | 114.21071 | 44 ft | 15 kts | 49° |
| 2026-04-30 04:11 | 22.30978 | 114.21078 | 44 ft | 0 kts | 41° |
| 2026-04-30 04:12 | 22.30978 | 114.21079 | 44 ft | 2 kts | 40° |
| 2026-04-30 04:12 | 22.31030 | 114.21076 | 46 ft | 13 kts | 331° |
| 2026-04-30 04:12 | 22.31118 | 114.20987 | 46 ft | 18 kts | 315° |
| 2026-04-30 04:13 | 22.31205 | 114.20889 | 46 ft | 18 kts | 315° |
| 2026-04-30 04:13 | 22.31293 | 114.20792 | 46 ft | 18 kts | 314° |
| 2026-04-30 04:13 | 22.31380 | 114.20694 | 46 ft | 18 kts | 314° |
| 2026-04-30 04:13 | 22.31470 | 114.20601 | 45 ft | 13 kts | 333° |
| 2026-04-30 04:14 | 22.31533 | 114.20615 | 49 ft | 10 kts | 40° |
| 2026-04-30 04:14 | 22.31581 | 114.20666 | 52 ft | 10 kts | 44° |
| 2026-04-30 04:14 | 22.31660 | 114.20730 | 47 ft | 17 kts | 5° |
| 2026-04-30 04:14 | 22.31755 | 114.20660 | 46 ft | 17 kts | 314° |
| 2026-04-30 04:15 | 22.31837 | 114.20568 | 45 ft | 17 kts | 314° |
| 2026-04-30 04:15 | 22.31919 | 114.20476 | 45 ft | 17 kts | 313° |
| 2026-04-30 04:15 | 22.32000 | 114.20383 | 45 ft | 17 kts | 316° |
| 2026-04-30 04:15 | 22.32083 | 114.20294 | 45 ft | 17 kts | 315° |
| 2026-04-30 04:16 | 22.32166 | 114.20200 | 45 ft | 17 kts | 314° |
| 2026-04-30 04:16 | 22.32246 | 114.20108 | 46 ft | 17 kts | 308° |
| 2026-04-30 04:16 | 22.32316 | 114.20005 | 45 ft | 17 kts | 306° |
| 2026-04-30 04:16 | 22.32416 | 114.19972 | 46 ft | 17 kts | 19° |
| 2026-04-30 04:17 | 22.32529 | 114.20010 | 46 ft | 17 kts | 17° |
| 2026-04-30 04:17 | 22.32643 | 114.20048 | 46 ft | 17 kts | 3° |
| 2026-04-30 04:17 | 22.32740 | 114.19980 | 46 ft | 17 kts | 314° |
| 2026-04-30 04:17 | 22.32834 | 114.19900 | 46 ft | 17 kts | 322° |
| 2026-04-30 04:18 | 22.32918 | 114.19809 | 46 ft | 17 kts | 307° |
| 2026-04-30 04:18 | 22.32878 | 114.19699 | 46 ft | 17 kts | 224° |
| 2026-04-30 04:18 | 22.32791 | 114.19608 | 44 ft | 17 kts | 224° |
| 2026-04-30 04:18 | 22.32768 | 114.19532 | 46 ft | 10 kts | 293° |
| 2026-04-30 04:19 | 22.32779 | 114.19516 | 46 ft | 2 kts | 307° |
| 2026-04-30 04:19 | 22.32793 | 114.19498 | 46 ft | 3 kts | 313° |
| 2026-04-30 04:20 | 22.32832 | 114.17187 | 765 ft | 149 kts | 54° |
| 2026-04-30 04:20 | 22.32594 | 114.19175 | 216 ft | 166 kts | 128° |
| 2026-04-30 04:21 | 22.32252 | 114.19550 | 106 ft | 146 kts | 129° |
| 2026-04-30 04:21 | 22.31901 | 114.19934 | 48 ft | 128 kts | 128° |
| 2026-04-30 04:22 | 22.31772 | 114.20089 | 46 ft | 132 kts | 130° |
| 2026-04-30 04:23 | 22.31741 | 114.20129 | 45 ft | 55 kts | 129° |
| 2026-04-30 04:23 | 22.32859 | 114.18852 | 334 ft | 155 kts | 125° |
| 2026-04-30 04:24 | 22.32573 | 114.16754 | 831 ft | 148 kts | 54° |
| 2026-04-30 04:24 | 22.32916 | 114.17329 | 743 ft | 149 kts | 55° |
| 2026-04-30 04:24 | 22.33048 | 114.18539 | 489 ft | 151 kts | 112° |
| 2026-04-30 04:25 | 22.32457 | 114.19324 | 170 ft | 150 kts | 128° |
| 2026-04-30 04:25 | 22.31937 | 114.19894 | 46 ft | 140 kts | 129° |
| 2026-04-30 04:25 | 22.31472 | 114.20442 | 46 ft | 103 kts | 134° |
| 2026-04-30 04:25 | 22.31199 | 114.20743 | 46 ft | 13 kts | 134° |
| 2026-04-30 04:26 | 22.32832 | 114.17187 | 762 ft | 138 kts | 54° |
| 2026-04-30 04:26 | 22.33147 | 114.17979 | 645 ft | 152 kts | 79° |
| 2026-04-30 04:27 | 22.32737 | 114.19008 | 252 ft | 154 kts | 127° |
| 2026-04-30 04:27 | 22.32118 | 114.19697 | 68 ft | 144 kts | 129° |
| 2026-04-30 04:27 | 22.31590 | 114.20312 | 46 ft | 115 kts | 134° |
| 2026-04-30 04:27 | 22.31202 | 114.20740 | 46 ft | 68 kts | 134° |
| 2026-04-30 04:28 | 22.31123 | 114.20830 | 46 ft | 40 kts | 134° |
| 2026-04-30 04:28 | 22.31708 | 114.20173 | 45 ft | 100 kts | 130° |
| 2026-04-30 04:30 | 22.31593 | 114.20308 | 46 ft | 1 kts | 134° |
| 2026-04-30 04:30 | 22.32723 | 114.17004 | 790 ft | 148 kts | 53° |